Time;durP1;ratioP1;P1;durP2;ratioP2;P2;SDS_P1;SDS_P2;PMS_P1;PMS_P2;Temp;Humidity;BMP_temperature;BMP_pressure;BME280_temperature;BME280_humidity;BME280_pressure;Samples;Min_cycle;Max_cycle;Signal;HPM_P1;HPM_P2
2023/09/17 00:01:06;;;;;;;10.90;10.00;;;21.60;93.00;;;;;;5023363;28;20025;-72
2023/09/17 00:03:34;;;;;;;12.55;10.13;;;21.50;91.00;;;;;;5044293;28;20067;-73
2023/09/17 00:06:00;;;;;;;11.85;10.65;;;21.50;90.90;;;;;;5023678;28;20386;-73
2023/09/17 00:08:26;;;;;;;12.15;10.85;;;21.60;91.50;;;;;;5044011;28;20021;-72
2023/09/17 00:10:52;;;;;;;11.20;9.95;;;21.60;91.80;;;;;;5043224;28;20056;-73
2023/09/17 00:13:19;;;;;;;14.10;10.50;;;21.60;93.00;;;;;;5035223;28;20055;-75
2023/09/17 00:15:45;;;;;;;11.40;10.30;;;21.60;92.00;;;;;;5035124;28;20196;-74
2023/09/17 00:18:12;;;;;;;11.23;10.23;;;21.50;93.50;;;;;;5044309;28;20040;-73
2023/09/17 00:20:37;;;;;;;13.60;10.13;;;21.50;93.90;;;;;;5032933;28;20125;-75
2023/09/17 00:23:03;;;;;;;11.38;10.27;;;21.50;94.70;;;;;;5017619;28;20178;-76
2023/09/17 00:25:29;;;;;;;18.73;10.23;;;21.50;94.50;;;;;;5031943;28;20459;-75
2023/09/17 00:27:55;;;;;;;11.90;10.23;;;21.50;94.20;;;;;;5050205;28;20112;-75
2023/09/17 00:30:21;;;;;;;10.63;9.18;;;21.50;95.00;;;;;;5041089;28;20032;-75
2023/09/17 00:32:47;;;;;;;13.82;9.38;;;21.50;94.60;;;;;;5031284;28;20033;-74
2023/09/17 00:35:13;;;;;;;12.85;9.35;;;21.50;94.60;;;;;;5046943;28;20034;-75
2023/09/17 00:37:40;;;;;;;10.45;9.57;;;21.50;95.60;;;;;;5037213;28;20405;-75
2023/09/17 00:40:07;;;;;;;10.35;9.27;;;21.50;96.10;;;;;;5045551;28;20090;-75
2023/09/17 00:42:33;;;;;;;11.10;10.00;;;21.50;96.80;;;;;;5043284;28;20496;-75
2023/09/17 00:44:59;;;;;;;10.35;9.43;;;21.50;96.40;;;;;;5040577;28;20037;-74
2023/09/17 00:47:25;;;;;;;10.70;9.70;;;21.50;96.50;;;;;;5031764;28;20029;-75
2023/09/17 00:49:51;;;;;;;13.77;9.73;;;21.50;96.20;;;;;;5037286;28;20036;-75
2023/09/17 00:52:19;;;;;;;10.88;9.73;;;21.50;96.10;;;;;;5035381;28;20036;-75
2023/09/17 00:54:48;;;;;;;11.10;10.00;;;21.50;96.10;;;;;;5028516;28;20041;-75
2023/09/17 00:57:17;;;;;;;11.88;9.50;;;21.50;96.90;;;;;;5051752;28;20058;-75
2023/09/17 00:59:47;;;;;;;12.82;9.35;;;21.50;97.30;;;;;;5044488;28;20047;-75
2023/09/17 01:02:18;;;;;;;11.07;10.05;;;21.50;97.30;;;;;;5037962;28;20013;-75
2023/09/17 01:04:49;;;;;;;10.68;9.55;;;21.50;97.10;;;;;;5052717;28;20381;-75
2023/09/17 01:07:19;;;;;;;12.60;9.68;;;21.40;97.90;;;;;;5052436;28;20104;-75
2023/09/17 01:09:45;;;;;;;12.82;9.52;;;21.50;97.70;;;;;;5032820;28;20045;-75
2023/09/17 01:12:11;;;;;;;10.65;9.65;;;21.40;97.40;;;;;;5032643;28;20033;-74
2023/09/17 01:14:38;;;;;;;13.90;9.75;;;21.40;97.80;;;;;;5041168;28;20029;-75
2023/09/17 01:17:07;;;;;;;11.07;8.90;;;21.40;99.00;;;;;;5031388;28;20022;-74
2023/09/17 01:19:34;;;;;;;10.32;9.35;;;21.40;98.90;;;;;;5039486;28;20078;-75
2023/09/17 01:22:03;;;;;;;10.43;9.40;;;21.40;99.90;;;;;;5052662;28;20025;-75
2023/09/17 01:24:48;;;;;;;11.85;9.35;;;21.40;99.90;;;;;;5052469;28;20045;-75
2023/09/17 01:27:18;;;;;;;10.80;9.63;;;21.40;98.40;;;;;;5047038;28;20071;-75
2023/09/17 01:29:45;;;;;;;10.32;8.93;;;21.40;99.90;;;;;;5034776;28;20040;-75
2023/09/17 01:32:12;;;;;;;11.50;8.63;;;21.50;98.60;;;;;;5049089;28;20053;-74
2023/09/17 01:34:40;;;;;;;10.05;9.00;;;21.50;99.30;;;;;;5032332;28;20053;-74
2023/09/17 01:37:23;;;;;;;10.73;9.40;;;21.40;98.50;;;;;;5036318;28;20102;-75
2023/09/17 01:40:00;;;;;;;;;;;21.50;98.20;;;;;;5042261;28;20108;-75
2023/09/17 01:42:28;;;;;;;10.45;9.35;;;21.50;99.00;;;;;;5044926;28;19992;-74
2023/09/17 01:44:57;;;;;;;10.80;9.57;;;21.40;99.60;;;;;;5056120;28;20043;-74
2023/09/17 01:47:23;;;;;;;13.35;9.57;;;21.40;99.90;;;;;;5030880;28;20123;-74
2023/09/17 01:49:50;;;;;;;10.73;8.75;;;21.40;99.70;;;;;;5056346;28;20025;-75
2023/09/17 01:52:20;;;;;;;9.13;8.23;;;21.40;99.00;;;;;;5045082;28;20036;-75
2023/09/17 01:54:46;;;;;;;8.35;7.65;;;21.50;99.50;;;;;;5039839;28;20382;-75
2023/09/17 01:57:12;;;;;;;9.18;8.32;;;21.50;99.60;;;;;;5045772;28;20412;-75
2023/09/17 01:59:38;;;;;;;9.45;8.65;;;21.40;99.90;;;;;;5056179;28;20074;-74
2023/09/17 02:02:03;;;;;;;11.15;8.52;;;21.40;99.90;;;;;;5048923;28;20076;-75
2023/09/17 02:04:29;;;;;;;9.55;8.55;;;21.40;99.90;;;;;;5033161;28;20033;-74
2023/09/17 02:06:55;;;;;;;9.45;8.45;;;21.40;99.90;;;;;;5048537;28;20481;-74
2023/09/17 02:09:21;;;;;;;11.18;9.30;;;21.50;99.90;;;;;;5052066;28;20498;-75
2023/09/17 02:11:48;;;;;;;9.63;8.00;;;21.40;99.90;;;;;;5055989;28;20025;-75
2023/09/17 02:14:15;;;;;;;11.00;8.63;;;21.50;99.90;;;;;;5055599;28;20120;-74
2023/09/17 02:16:41;;;;;;;9.77;8.57;;;21.40;99.90;;;;;;5036784;28;20024;-75
2023/09/17 02:19:06;;;;;;;10.38;9.48;;;21.40;99.90;;;;;;5046326;28;20018;-74
2023/09/17 02:21:32;;;;;;;10.25;9.10;;;21.30;99.90;;;;;;5042276;28;20021;-75
2023/09/17 02:23:59;;;;;;;10.45;9.55;;;21.30;99.90;;;;;;5048616;28;20026;-75
2023/09/17 02:26:24;;;;;;;11.48;9.60;;;21.30;99.90;;;;;;5039107;28;20028;-75
2023/09/17 02:28:50;;;;;;;9.95;9.15;;;21.20;99.90;;;;;;5055595;28;20017;-75
2023/09/17 02:31:16;;;;;;;11.05;9.65;;;21.10;99.90;;;;;;5055671;28;20017;-75
2023/09/17 02:33:41;;;;;;;10.05;9.05;;;21.10;99.90;;;;;;5051648;28;20017;-75
2023/09/17 02:36:07;;;;;;;12.68;10.38;;;21.10;99.90;;;;;;5051934;28;20022;-74
2023/09/17 02:38:33;;;;;;;11.88;10.63;;;21.10;99.90;;;;;;5017953;28;20041;-74
2023/09/17 02:40:59;;;;;;;14.13;11.07;;;21.10;99.90;;;;;;5054348;28;20021;-74
2023/09/17 02:43:29;;;;;;;12.52;9.48;;;21.20;99.90;;;;;;5039220;28;20358;-74
2023/09/17 02:45:56;;;;;;;12.73;10.70;;;21.20;99.90;;;;;;5042348;28;20554;-75
2023/09/17 02:48:22;;;;;;;13.30;9.65;;;21.10;99.90;;;;;;5043003;28;20110;-75
2023/09/17 02:50:48;;;;;;;10.70;9.68;;;21.20;99.90;;;;;;5040260;28;20100;-74
2023/09/17 02:53:13;;;;;;;12.70;10.60;;;21.20;99.90;;;;;;5053230;28;20044;-74
2023/09/17 02:55:39;;;;;;;11.40;10.25;;;21.20;99.90;;;;;;5035146;28;20021;-74
2023/09/17 02:58:05;;;;;;;11.55;10.43;;;21.20;99.90;;;;;;5027002;28;20045;-75
2023/09/17 03:00:32;;;;;;;11.23;10.13;;;21.20;99.90;;;;;;5040327;28;20024;-74
2023/09/17 03:02:58;;;;;;;11.30;10.25;;;21.20;99.90;;;;;;5032012;28;20049;-75
2023/09/17 03:05:24;;;;;;;12.05;10.93;;;21.20;99.90;;;;;;5048726;28;20059;-75
2023/09/17 03:07:50;;;;;;;12.27;10.02;;;21.20;99.90;;;;;;5053839;28;20426;-74
2023/09/17 03:10:18;;;;;;;11.27;10.25;;;21.20;99.90;;;;;;5054291;28;20112;-74
2023/09/17 03:12:46;;;;;;;12.02;10.27;;;21.20;99.90;;;;;;5054572;28;20477;-75
2023/09/17 03:15:12;;;;;;;10.93;9.73;;;21.20;99.90;;;;;;5054459;28;20083;-75
2023/09/17 03:17:38;;;;;;;10.88;9.57;;;21.20;99.90;;;;;;5049387;28;20029;-74
2023/09/17 03:20:13;;;;;;;11.95;10.10;;;21.10;99.90;;;;;;5054041;28;20500;-74
2023/09/17 03:22:40;;;;;;;10.90;9.80;;;21.10;99.90;;;;;;5046743;28;20284;-75
2023/09/17 03:25:06;;;;;;;11.23;10.18;;;21.10;99.90;;;;;;5043422;28;20017;-75
2023/09/17 03:27:35;;;;;;;13.00;10.40;;;21.10;99.90;;;;;;5043148;28;20044;-75
2023/09/17 03:30:05;;;;;;;12.25;10.77;;;21.10;99.90;;;;;;5042907;28;20029;-75
2023/09/17 03:32:31;;;;;;;12.90;10.45;;;21.10;99.90;;;;;;5042453;28;20028;-75
2023/09/17 03:34:57;;;;;;;13.50;11.45;;;21.00;99.90;;;;;;5031469;28;20119;-75
2023/09/17 03:37:23;;;;;;;12.25;10.95;;;21.00;99.90;;;;;;5050999;28;20112;-75
2023/09/17 03:40:11;;;;;;;13.93;10.77;;;20.90;99.90;;;;;;5051265;28;20024;-75
2023/09/17 03:42:38;;;;;;;12.43;10.15;;;20.90;99.90;;;;;;5025126;28;20025;-75
2023/09/17 03:45:09;;;;;;;11.70;10.52;;;20.90;99.90;;;;;;5030665;28;20057;-75
2023/09/17 03:47:43;;;;;;;12.40;11.15;;;20.80;99.90;;;;;;5049674;28;20093;-75
2023/09/17 03:50:11;;;;;;;12.82;11.50;;;20.80;99.90;;;;;;5047343;28;20025;-75
2023/09/17 03:52:39;;;;;;;12.07;10.93;;;20.80;99.90;;;;;;5043992;28;20430;-75
2023/09/17 03:55:05;;;;;;;14.52;10.75;;;20.80;99.90;;;;;;5052614;28;20033;-75
2023/09/17 03:57:33;;;;;;;12.80;11.50;;;20.70;99.90;;;;;;5047927;28;20045;-75
2023/09/17 03:59:59;;;;;;;12.45;10.88;;;20.70;99.90;;;;;;5053299;28;20052;-75
2023/09/17 04:02:25;;;;;;;12.05;10.52;;;20.70;99.90;;;;;;5034210;28;20079;-75
2023/09/17 04:04:51;;;;;;;14.95;11.65;;;20.70;99.90;;;;;;5036373;28;20022;-75
2023/09/17 04:07:17;;;;;;;18.75;11.10;;;20.70;99.90;;;;;;5040300;28;20060;-75
2023/09/17 04:09:42;;;;;;;13.60;12.18;;;20.70;99.90;;;;;;5044519;28;20063;-74
2023/09/17 04:12:08;;;;;;;13.32;11.88;;;20.60;99.90;;;;;;5033668;28;20033;-75
2023/09/17 04:14:34;;;;;;;11.90;10.80;;;20.60;99.90;;;;;;5026733;28;20039;-74
2023/09/17 04:17:01;;;;;;;12.65;11.35;;;20.60;99.90;;;;;;5044176;28;20021;-75
2023/09/17 04:19:29;;;;;;;13.95;11.27;;;20.60;99.90;;;;;;5043526;28;20499;-74
2023/09/17 04:21:55;;;;;;;14.55;11.60;;;20.60;99.90;;;;;;5037074;28;20021;-75
2023/09/17 04:24:21;;;;;;;13.98;10.65;;;20.60;99.90;;;;;;5039821;28;20021;-74
2023/09/17 04:26:47;;;;;;;11.88;10.68;;;20.60;99.90;;;;;;5032643;28;20099;-75
2023/09/17 04:29:13;;;;;;;12.13;10.65;;;20.50;99.90;;;;;;5053508;28;20053;-75
2023/09/17 04:31:39;;;;;;;13.77;11.32;;;20.50;99.90;;;;;;5037847;28;20389;-74
2023/09/17 04:34:04;;;;;;;14.85;11.18;;;20.50;99.90;;;;;;5035011;28;20029;-74
2023/09/17 04:36:30;;;;;;;13.73;11.80;;;20.40;99.90;;;;;;5045097;28;20426;-75
2023/09/17 04:38:56;;;;;;;12.98;11.65;;;20.40;99.90;;;;;;5040937;28;20021;-74
2023/09/17 04:41:21;;;;;;;12.70;11.50;;;20.40;99.90;;;;;;5034411;28;20057;-74
2023/09/17 04:43:47;;;;;;;14.20;11.77;;;20.40;99.90;;;;;;5053099;28;20083;-75
2023/09/17 04:46:13;;;;;;;13.70;11.50;;;20.40;99.90;;;;;;5042788;28;20064;-74
2023/09/17 04:48:39;;;;;;;14.52;12.75;;;20.40;99.90;;;;;;5030037;28;20020;-75
2023/09/17 04:51:06;;;;;;;13.35;11.95;;;20.30;99.90;;;;;;5037380;28;20385;-73
2023/09/17 04:53:32;;;;;;;16.55;13.05;;;20.30;99.90;;;;;;5046203;28;20017;-74
2023/09/17 04:55:58;;;;;;;14.20;12.48;;;20.30;99.90;;;;;;5052775;28;20032;-74
2023/09/17 04:58:23;;;;;;;17.25;12.48;;;20.30;99.90;;;;;;5071767;28;20036;-75
2023/09/17 05:00:49;;;;;;;13.93;12.52;;;20.20;99.90;;;;;;5065108;28;20074;-74
2023/09/17 05:03:15;;;;;;;13.43;12.13;;;20.20;99.90;;;;;;5041398;28;20110;-75
2023/09/17 05:05:41;;;;;;;13.13;11.80;;;20.20;99.90;;;;;;5051427;28;20025;-75
2023/09/17 05:08:07;;;;;;;13.48;11.75;;;20.20;99.90;;;;;;5052582;28;20025;-75
2023/09/17 05:10:33;;;;;;;14.00;11.68;;;20.20;99.90;;;;;;5052804;28;20024;-75
2023/09/17 05:12:59;;;;;;;14.00;12.63;;;20.20;99.90;;;;;;5048605;28;20071;-75
2023/09/17 05:15:25;;;;;;;20.70;12.43;;;20.20;99.90;;;;;;5042839;28;20552;-74
2023/09/17 05:17:51;;;;;;;13.40;12.05;;;20.20;99.90;;;;;;5032585;28;20101;-75
2023/09/17 05:20:18;;;;;;;14.63;11.88;;;20.20;99.90;;;;;;5039081;28;20112;-75
2023/09/17 05:22:44;;;;;;;14.43;12.90;;;20.30;99.90;;;;;;5048851;28;20444;-75
2023/09/17 05:25:09;;;;;;;16.08;14.13;;;20.30;99.90;;;;;;5032473;28;20116;-74
2023/09/17 05:27:35;;;;;;;14.85;12.90;;;20.30;99.90;;;;;;5056392;28;20487;-74
2023/09/17 05:30:02;;;;;;;15.25;13.25;;;20.30;99.90;;;;;;5038546;28;20025;-74
2023/09/17 05:32:28;;;;;;;14.98;12.65;;;20.40;99.90;;;;;;5032682;28;20033;-75
2023/09/17 05:34:58;;;;;;;15.20;13.00;;;20.50;99.90;;;;;;5032268;28;20025;-74
2023/09/17 05:37:24;;;;;;;12.82;11.63;;;20.50;99.90;;;;;;5032539;28;20049;-75
2023/09/17 05:39:50;;;;;;;13.25;11.90;;;20.50;99.90;;;;;;5032585;28;20060;-75
2023/09/17 05:42:15;;;;;;;14.98;12.30;;;20.50;99.90;;;;;;5040069;28;20083;-74
2023/09/17 05:44:41;;;;;;;13.25;11.85;;;20.50;99.90;;;;;;5039955;28;20030;-74
2023/09/17 05:47:07;;;;;;;12.63;11.32;;;20.50;99.90;;;;;;5017672;28;20018;-74
2023/09/17 05:49:32;;;;;;;13.63;12.23;;;20.60;99.90;;;;;;5033651;28;20497;-75
2023/09/17 05:51:59;;;;;;;12.35;11.07;;;20.60;99.90;;;;;;5042184;28;20489;-75
2023/09/17 05:54:25;;;;;;;11.85;10.68;;;20.60;99.90;;;;;;5035954;28;20049;-74
2023/09/17 05:56:50;;;;;;;13.30;11.43;;;20.60;99.90;;;;;;5038569;28;20405;-74
2023/09/17 05:59:17;;;;;;;12.27;10.80;;;20.70;99.90;;;;;;5039097;28;20025;-73
2023/09/17 06:01:43;;;;;;;11.85;10.50;;;20.70;99.90;;;;;;5040225;28;20025;-73
2023/09/17 06:04:08;;;;;;;13.13;10.55;;;20.70;99.90;;;;;;5039858;28;20044;-72
2023/09/17 06:06:34;;;;;;;11.85;10.65;;;20.80;99.90;;;;;;5041675;28;20024;-73
2023/09/17 06:09:00;;;;;;;12.60;10.73;;;20.80;99.90;;;;;;5038262;28;20473;-73
2023/09/17 06:11:25;;;;;;;11.55;10.38;;;20.80;99.90;;;;;;5035484;28;20025;-72
2023/09/17 06:13:51;;;;;;;14.77;11.57;;;20.80;99.90;;;;;;5040425;28;20033;-72
2023/09/17 06:16:17;;;;;;;12.77;11.45;;;20.90;99.90;;;;;;5038128;28;20030;-73
2023/09/17 06:18:42;;;;;;;12.52;11.23;;;20.90;99.90;;;;;;5041434;28;20025;-72
2023/09/17 06:21:08;;;;;;;15.00;11.45;;;20.80;99.90;;;;;;5021701;28;20107;-73
2023/09/17 06:23:35;;;;;;;12.32;11.10;;;20.90;99.90;;;;;;5040077;28;20028;-72
2023/09/17 06:26:01;;;;;;;11.77;10.18;;;20.90;99.90;;;;;;5042149;28;20128;-72
2023/09/17 06:28:26;;;;;;;11.93;10.82;;;20.90;99.90;;;;;;5047666;28;20520;-72
2023/09/17 06:30:53;;;;;;;12.02;10.93;;;20.90;99.90;;;;;;5043778;28;20033;-73
2023/09/17 06:33:19;;;;;;;13.00;11.00;;;21.00;99.90;;;;;;5043626;28;20033;-72
2023/09/17 06:35:44;;;;;;;11.25;10.35;;;21.00;99.90;;;;;;5045476;28;20444;-73
2023/09/17 06:38:11;;;;;;;15.32;11.55;;;21.10;99.90;;;;;;5045356;28;20079;-72
2023/09/17 06:40:37;;;;;;;12.05;10.82;;;21.10;99.90;;;;;;5043855;28;20014;-72
2023/09/17 06:43:03;;;;;;;11.95;10.63;;;21.10;99.90;;;;;;5046445;28;20025;-72
2023/09/17 06:45:28;;;;;;;13.40;10.02;;;21.10;99.90;;;;;;5043662;28;20029;-73
2023/09/17 06:47:54;;;;;;;12.75;11.25;;;21.20;99.90;;;;;;5049043;28;20634;-72
2023/09/17 06:50:20;;;;;;;12.00;10.77;;;21.20;99.90;;;;;;5048404;28;20111;-72
2023/09/17 06:52:45;;;;;;;14.23;10.45;;;21.30;99.90;;;;;;5028117;28;20033;-72
2023/09/17 06:55:11;;;;;;;11.98;10.77;;;21.30;99.90;;;;;;5044037;28;20029;-74
2023/09/17 06:57:37;;;;;;;12.10;11.00;;;21.40;99.90;;;;;;5036286;28;20060;-74
2023/09/17 07:00:03;;;;;;;12.30;10.65;;;21.40;99.90;;;;;;5055167;28;20017;-75
2023/09/17 07:02:29;;;;;;;12.02;10.90;;;21.50;99.90;;;;;;5045780;28;20029;-74
2023/09/17 07:04:55;;;;;;;11.63;10.63;;;21.60;99.90;;;;;;5040879;28;20099;-74
2023/09/17 07:07:21;;;;;;;14.02;11.38;;;21.60;99.90;;;;;;5043987;28;20032;-75
2023/09/17 07:09:47;;;;;;;16.15;14.25;;;21.60;99.90;;;;;;5041577;28;20028;-75
2023/09/17 07:12:13;;;;;;;17.20;14.43;;;21.70;99.90;;;;;;5042383;28;20033;-74
2023/09/17 07:14:38;;;;;;;16.90;14.05;;;21.70;99.90;;;;;;5025419;28;20025;-74
2023/09/17 07:17:04;;;;;;;15.43;13.82;;;21.70;99.90;;;;;;5044190;28;20017;-74
2023/09/17 07:19:33;;;;;;;17.23;14.18;;;21.70;99.90;;;;;;5026858;28;20021;-75
2023/09/17 07:21:59;;;;;;;20.00;14.40;;;21.70;99.90;;;;;;5036088;28;20040;-74
2023/09/17 07:24:24;;;;;;;16.00;12.90;;;21.70;99.90;;;;;;5026135;28;20229;-74
2023/09/17 07:26:50;;;;;;;13.55;12.15;;;21.70;99.90;;;;;;5048970;28;20489;-75
2023/09/17 07:29:19;;;;;;;14.68;13.10;;;21.80;99.90;;;;;;5043282;28;20108;-74
2023/09/17 07:31:47;;;;;;;17.65;13.75;;;21.90;99.90;;;;;;5049345;28;20035;-74
2023/09/17 07:34:13;;;;;;;16.02;14.27;;;21.90;99.90;;;;;;5053702;28;20650;-75
2023/09/17 07:36:39;;;;;;;18.55;13.82;;;22.00;99.90;;;;;;5046453;28;20029;-75
2023/09/17 07:39:05;;;;;;;17.13;15.40;;;22.00;99.90;;;;;;5029543;28;20056;-74
2023/09/17 07:41:31;;;;;;;17.45;13.70;;;22.00;99.90;;;;;;5048488;28;20071;-75
2023/09/17 07:43:57;;;;;;;16.95;15.05;;;22.10;99.90;;;;;;5032820;28;20439;-75
2023/09/17 07:46:23;;;;;;;17.08;13.88;;;22.10;99.90;;;;;;5051759;28;20021;-75
2023/09/17 07:48:50;;;;;;;17.13;14.77;;;22.10;99.90;;;;;;5048182;28;20389;-75
2023/09/17 07:51:16;;;;;;;19.63;15.43;;;22.10;99.90;;;;;;5048844;28;20029;-75
2023/09/17 07:53:42;;;;;;;16.92;14.63;;;22.20;99.90;;;;;;5043047;28;20035;-73
2023/09/17 07:56:07;;;;;;;22.45;15.82;;;22.20;99.90;;;;;;5043208;28;20695;-73
2023/09/17 07:58:33;;;;;;;22.08;14.60;;;22.20;99.90;;;;;;5045972;28;20049;-73
2023/09/17 08:00:59;;;;;;;17.38;14.32;;;22.30;97.60;;;;;;5044962;28;20504;-74
2023/09/17 08:03:24;;;;;;;18.52;14.60;;;22.30;98.60;;;;;;5043734;28;20028;-73
2023/09/17 08:05:50;;;;;;;18.40;14.55;;;22.30;99.90;;;;;;5042456;28;20500;-73
2023/09/17 08:08:16;;;;;;;15.48;13.88;;;22.30;99.40;;;;;;5042003;28;20017;-73
2023/09/17 08:10:42;;;;;;;20.58;15.02;;;22.40;99.90;;;;;;5026428;28;20028;-73
2023/09/17 08:13:08;;;;;;;16.27;13.25;;;22.50;99.90;;;;;;5023734;28;20496;-73
2023/09/17 08:15:34;;;;;;;17.75;12.20;;;22.50;96.50;;;;;;5043519;28;20481;-73
2023/09/17 08:18:00;;;;;;;12.40;10.43;;;22.50;98.00;;;;;;5042543;28;20021;-73
2023/09/17 08:20:25;;;;;;;13.98;12.55;;;22.60;88.10;;;;;;5044576;28;20084;-73
2023/09/17 08:22:52;;;;;;;17.83;14.70;;;22.70;91.90;;;;;;5040792;28;20436;-72
2023/09/17 08:25:18;;;;;;;18.73;15.13;;;22.70;92.30;;;;;;5037841;28;20032;-73
2023/09/17 08:27:44;;;;;;;19.48;15.35;;;22.70;93.40;;;;;;5044538;28;20111;-73
2023/09/17 08:30:13;;;;;;;19.08;16.77;;;22.80;95.50;;;;;;5040920;28;20096;-73
2023/09/17 08:32:44;;;;;;;18.30;16.10;;;22.80;91.80;;;;;;5030021;28;20036;-73
2023/09/17 08:35:14;;;;;;;20.42;17.00;;;22.90;99.20;;;;;;5038060;28;20025;-73
2023/09/17 08:37:41;;;;;;;22.98;17.33;;;23.00;92.50;;;;;;5042886;28;20378;-72
2023/09/17 08:40:23;;;;;;;20.73;17.25;;;23.10;97.00;;;;;;5039837;28;20105;-73
2023/09/17 08:42:51;;;;;;;23.90;15.52;;;23.10;91.80;;;;;;5022704;28;20021;-74
2023/09/17 08:45:18;;;;;;;21.15;18.27;;;23.10;92.00;;;;;;5043660;28;20439;-73
2023/09/17 08:47:44;;;;;;;18.70;15.90;;;23.20;94.00;;;;;;5043160;28;20037;-75
2023/09/17 08:50:10;;;;;;;20.90;17.17;;;23.20;81.00;;;;;;5043556;28;20040;-75
2023/09/17 08:52:54;;;;;;;18.23;15.32;;;23.20;76.80;;;;;;5043790;28;20365;-74
2023/09/17 08:55:21;;;;;;;21.13;16.42;;;23.30;69.50;;;;;;5041521;28;20040;-74
2023/09/17 08:57:55;;;;;;;17.58;15.50;;;23.30;66.50;;;;;;5048453;28;20053;-74
2023/09/17 09:00:22;;;;;;;22.48;14.65;;;23.40;73.00;;;;;;5045536;28;20017;-75
2023/09/17 09:02:59;;;;;;;16.77;14.02;;;23.40;67.10;;;;;;5045045;28;20401;-73
2023/09/17 09:05:27;;;;;;;21.70;16.50;;;23.50;74.50;;;;;;5045740;28;20512;-73
2023/09/17 09:07:55;;;;;;;19.05;14.88;;;23.50;62.20;;;;;;5030879;28;20020;-73
2023/09/17 09:10:22;;;;;;;19.98;16.23;;;23.50;72.80;;;;;;5046059;28;20020;-73
2023/09/17 09:12:49;;;;;;;16.13;14.43;;;23.50;67.60;;;;;;5047014;28;20641;-73
2023/09/17 09:15:15;;;;;;;19.77;14.55;;;23.60;63.20;;;;;;5049716;28;20017;-73
2023/09/17 09:17:41;;;;;;;20.30;14.93;;;23.70;57.50;;;;;;5046252;28;20028;-73
2023/09/17 09:20:10;;;;;;;20.60;15.38;;;23.70;52.10;;;;;;5050673;28;20022;-73
2023/09/17 09:22:37;;;;;;;21.25;14.85;;;23.70;41.60;;;;;;5046861;28;20029;-73
2023/09/17 09:25:06;;;;;;;21.92;15.70;;;23.80;52.20;;;;;;5049904;28;20055;-73
2023/09/17 09:27:32;;;;;;;18.88;14.57;;;23.90;61.50;;;;;;5049447;28;20504;-73
2023/09/17 09:29:58;;;;;;;18.98;14.68;;;24.00;66.10;;;;;;5049539;28;20021;-72
2023/09/17 09:32:24;;;;;;;17.33;14.48;;;24.10;47.10;;;;;;5042257;28;20087;-73
2023/09/17 09:34:51;;;;;;;19.63;15.32;;;24.20;11.00;;;;;;5023167;28;20037;-73
2023/09/17 09:37:23;;;;;;;19.48;14.25;;;24.20;35.50;;;;;;5044317;28;20130;-73
2023/09/17 09:39:49;;;;;;;17.38;14.45;;;24.40;23.30;;;;;;5044660;28;20313;-73
2023/09/17 09:42:15;;;;;;;18.33;15.38;;;24.40;22.80;;;;;;5047797;28;20508;-73
2023/09/17 09:44:41;;;;;;;17.42;14.23;;;24.40;18.70;;;;;;5047513;28;20017;-73
2023/09/17 09:47:07;;;;;;;20.45;15.23;;;24.40;26.80;;;;;;5025544;28;20017;-73
2023/09/17 09:49:42;;;;;;;16.83;14.48;;;24.40;19.70;;;;;;5048987;28;20017;-73
2023/09/17 09:52:11;;;;;;;17.77;13.45;;;24.40;10.40;;;;;;5048419;28;20476;-73
2023/09/17 09:54:36;;;;;;;16.45;12.18;;;24.50;19.40;;;;;;5049115;28;20590;-73
2023/09/17 09:57:04;;;;;;;16.95;14.38;;;24.50;6.70;;;;;;5049069;28;20072;-73
2023/09/17 09:59:32;;;;;;;16.63;14.05;;;24.60;8.20;;;;;;5049552;28;20017;-73
2023/09/17 10:01:58;;;;;;;16.05;14.10;;;24.60;1.00;;;;;;5049217;28;20147;-73
2023/09/17 10:04:25;;;;;;;16.60;14.20;;;24.60;1.00;;;;;;5052397;28;20060;-73
2023/09/17 10:06:51;;;;;;;19.60;14.18;;;24.50;1.10;;;;;;5055195;28;20075;-73
2023/09/17 10:09:17;;;;;;;16.38;13.55;;;24.50;1.00;;;;;;5055077;28;20033;-74
2023/09/17 10:11:43;;;;;;;16.58;11.70;;;24.60;1.00;;;;;;5052789;28;20047;-73
2023/09/17 10:14:09;;;;;;;20.35;15.60;;;24.60;3.40;;;;;;5054939;28;20525;-72
2023/09/17 10:16:37;;;;;;;12.73;11.43;;;24.70;1.00;;;;;;5055004;28;20106;-73
2023/09/17 10:19:04;;;;;;;12.50;11.20;;;24.80;1.00;;;;;;5055270;28;20476;-74
2023/09/17 10:21:37;;;;;;;12.70;11.40;;;24.80;1.00;;;;;;5045729;28;20032;-75
2023/09/17 10:24:04;;;;;;;14.30;12.80;;;24.80;1.00;;;;;;5052415;28;20020;-75
2023/09/17 10:26:32;;;;;;;18.88;11.65;;;24.80;1.00;;;;;;5052584;28;20701;-75
2023/09/17 10:29:00;;;;;;;15.18;12.70;;;24.80;1.00;;;;;;5054651;28;20017;-73
2023/09/17 10:31:26;;;;;;;12.00;10.23;;;24.80;1.00;;;;;;5053840;28;20676;-73
2023/09/17 10:33:53;;;;;;;12.98;10.23;;;24.90;1.00;;;;;;5053835;28;20020;-72
2023/09/17 10:36:19;;;;;;;10.20;9.18;;;25.00;1.00;;;;;;5053706;28;20029;-72
2023/09/17 10:38:46;;;;;;;10.48;9.48;;;25.00;1.00;;;;;;5054156;28;20044;-73
2023/09/17 10:41:13;;;;;;;10.65;9.57;;;25.00;1.00;;;;;;5054430;28;20163;-73
2023/09/17 10:43:42;;;;;;;12.25;9.25;;;25.10;1.00;;;;;;5052618;28;20358;-73
2023/09/17 10:46:11;;;;;;;10.85;8.25;;;25.10;1.00;;;;;;5047162;28;20041;-73
2023/09/17 10:48:40;;;;;;;10.32;8.60;;;25.20;1.00;;;;;;5027833;28;20116;-73
2023/09/17 10:51:07;;;;;;;11.10;9.75;;;25.30;1.00;;;;;;5045287;28;20041;-73
2023/09/17 10:53:33;;;;;;;12.13;9.18;;;25.20;1.00;;;;;;5043286;28;20025;-72
2023/09/17 10:56:09;;;;;;;10.30;7.72;;;25.30;1.00;;;;;;5029749;28;20079;-72
2023/09/17 10:58:52;;;;;;;10.80;8.60;;;25.30;1.00;;;;;;5045413;28;20444;-73
2023/09/17 11:01:24;;;;;;;11.00;9.07;;;25.20;1.00;;;;;;5048751;28;20025;-73
2023/09/17 11:04:01;;;;;;;8.77;6.88;;;25.30;1.00;;;;;;5041900;28;20025;-72
2023/09/17 11:06:29;;;;;;;10.35;8.40;;;25.30;99.90;;;;;;5026611;28;20052;-72
2023/09/17 11:08:56;;;;;;;15.60;9.00;;;25.30;99.90;;;;;;5040235;28;20029;-72
2023/09/17 11:11:29;;;;;;;15.43;10.75;;;25.30;99.90;;;;;;5041581;28;20032;-72
2023/09/17 11:13:55;;;;;;;12.48;11.18;;;25.30;1.00;;;;;;5039023;28;20033;-72
2023/09/17 11:16:23;;;;;;;14.98;11.98;;;25.30;1.00;;;;;;5040156;28;20124;-73
2023/09/17 11:19:15;;;;;;;20.35;15.52;;;25.40;1.00;;;;;;5023980;28;20029;-73
2023/09/17 11:21:42;;;;;;;16.67;14.43;;;25.40;99.90;;;;;;5031043;28;20543;-72
2023/09/17 11:24:12;;;;;;;20.17;16.83;;;25.40;1.00;;;;;;5042272;28;20040;-72
2023/09/17 11:26:41;;;;;;;18.00;15.23;;;25.40;99.90;;;;;;5039547;28;20063;-72
2023/09/17 11:29:08;;;;;;;23.20;17.67;;;25.40;1.00;;;;;;5038687;28;20489;-72
2023/09/17 11:31:54;;;;;;;23.60;17.33;;;25.40;1.00;;;;;;5041684;28;20036;-72
2023/09/17 11:34:21;;;;;;;21.92;17.48;;;25.40;1.00;;;;;;5036682;28;20068;-73
2023/09/17 11:36:47;;;;;;;23.05;16.50;;;25.40;1.00;;;;;;5038742;28;20025;-73
2023/09/17 11:39:20;;;;;;;19.88;15.55;;;25.50;1.00;;;;;;5044918;28;20070;-72
2023/09/17 11:42:08;;;;;;;25.40;17.55;;;25.60;99.90;;;;;;5041556;28;20021;-73
2023/09/17 11:44:35;;;;;;;26.95;19.13;;;25.50;99.90;;;;;;5039054;28;20040;-72
2023/09/17 11:47:03;;;;;;;23.25;16.42;;;25.50;99.90;;;;;;5037501;28;20536;-73
2023/09/17 11:49:28;;;;;;;26.65;17.45;;;25.60;1.00;;;;;;5038401;28;20107;-73
2023/09/17 11:51:57;;;;;;;23.23;17.42;;;25.60;99.90;;;;;;5042016;28;20116;-73
2023/09/17 11:54:28;;;;;;;25.45;17.50;;;25.60;99.90;;;;;;5044530;28;20400;-72
2023/09/17 11:56:55;;;;;;;21.52;15.98;;;25.50;1.00;;;;;;5049707;28;20041;-73
2023/09/17 11:59:22;;;;;;;22.02;16.40;;;25.60;1.00;;;;;;5025635;28;20021;-72
2023/09/17 12:01:47;;;;;;;23.85;15.98;;;25.60;1.00;;;;;;5021142;28;20060;-73
2023/09/17 12:04:14;;;;;;;24.52;18.75;;;25.80;1.00;;;;;;5046517;28;20049;-73
2023/09/17 12:06:43;;;;;;;23.90;18.40;;;25.90;99.90;;;;;;5034057;28;20115;-73
2023/09/17 12:12:11;;;;;;;24.05;16.83;;;25.90;99.90;;;;;;5042243;28;20037;-73
2023/09/17 12:14:37;;;;;;;25.63;16.30;;;26.10;99.90;;;;;;5043811;28;20508;-73
2023/09/17 12:17:03;;;;;;;21.85;15.93;;;26.20;99.90;;;;;;5044093;28;20032;-73
2023/09/17 12:19:29;;;;;;;23.30;17.02;;;26.30;99.90;;;;;;5045661;28;20108;-75
2023/09/17 12:22:00;;;;;;;21.70;16.02;;;26.30;99.90;;;;;;5049429;28;20590;-75
2023/09/17 12:24:47;;;;;;;27.38;18.40;;;26.30;99.90;;;;;;5030531;28;20079;-74
2023/09/17 12:27:29;;;;;;;27.25;17.92;;;26.20;99.90;;;;;;5052324;28;20025;-75
2023/09/17 12:29:55;;;;;;;23.42;17.85;;;26.20;99.90;;;;;;5030177;28;20024;-73
2023/09/17 12:32:27;;;;;;;21.55;16.90;;;26.10;99.90;;;;;;5042079;28;20061;-73
2023/09/17 12:34:54;;;;;;;21.45;17.50;;;26.20;99.90;;;;;;5029163;28;20037;-73